MMTJ/TIJ METAR and TAF weather

Enter ICAO airport designator
Station Type Date Time Source
MMTJ METAR 2020/01/29 12:41 UTC NOAA

MMTJ 291241Z 00000KT 1/16SM FG VV001 09/09 A3004 RMK 8////


Station Type Date Time Source
MMTJ Decoded METAR 2020/01/29 12:41 UTC NOAA

Tijuana International Airport , Mexico (MMTJ) 32-33N 116-58W
Jan 29, 2020 - 07:41 AM EST / 2020.01.29 1241 UTC
Wind: Calm:0
Visibility: 1/16 mile(s):0
Sky conditions: obscured
Weather: fog
Temperature: 48 F (9 C)
Dew Point: 48 F (9 C)
Relative Humidity: 100%
Pressure (altimeter): 30.04 in. Hg (1017 hPa)
ob: MMTJ 291241Z 00000KT 1/16SM FG VV001 09/09 A3004 RMK 8////
cycle: 12

Station Type Date Time Source
MMTJ TAF 2020/01/29 12:59 UTC NOAA

TAF COR MMTJ 291159Z 2912/3018 34005KT 1/4SM FG VV001 TX23/2920Z TN09/2912Z
BECMG 2914/2915 3SM BR SCT003 BKN010
FM291500 00000KT 6SM HZ SCT005
FM291800 32010KT P6SM SCT250
FM300500 03005KT P6SM SKC
FM301700 03010KT P6SM SCT250

Example: see airport list